Time;durP1;ratioP1;P1;durP2;ratioP2;P2;SDS_P1;SDS_P2;PMS_P1;PMS_P2;Temp;Humidity;BMP_temperature;BMP_pressure;BME280_temperature;BME280_humidity;BME280_pressure;Samples;Min_cycle;Max_cycle;Signal;HPM_P1;HPM_P2
2023/10/15 00:00:55;;;;;;;3.83;1.00;;;20.70;73.20;;;;;;6306875;22;45032;-60
2023/10/15 00:03:23;;;;;;;1.08;0.50;;;20.70;72.70;;;;;;6307454;22;45085;-60
2023/10/15 00:05:50;;;;;;;3.08;0.73;;;20.70;73.10;;;;;;6306803;22;45192;-60
2023/10/15 00:08:17;;;;;;;1.83;0.63;;;20.60;73.00;;;;;;6306623;22;45133;-60
2023/10/15 00:10:44;;;;;;;2.42;0.77;;;20.70;73.30;;;;;;6306879;22;45155;-60
2023/10/15 00:13:11;;;;;;;1.42;0.60;;;20.60;72.60;;;;;;6307201;22;45089;-60
2023/10/15 00:15:39;;;;;;;1.27;0.65;;;20.70;73.60;;;;;;6306747;22;45327;-59
2023/10/15 00:18:09;;;;;;;1.50;0.70;;;20.60;73.60;;;;;;6306166;22;46206;-60
2023/10/15 00:20:40;;;;;;;0.80;0.55;;;20.60;73.10;;;;;;6305689;22;45077;-60
2023/10/15 00:23:09;;;;;;;1.30;0.60;;;20.60;73.10;;;;;;6307100;22;45113;-60
2023/10/15 00:25:38;;;;;;;2.83;0.50;;;20.60;73.50;;;;;;6306792;22;45077;-60
2023/10/15 00:28:09;;;;;;;2.30;0.73;;;20.60;73.60;;;;;;6306442;22;45230;-60
2023/10/15 00:30:37;;;;;;;1.95;0.73;;;20.60;73.50;;;;;;6306668;22;45091;-60
2023/10/15 00:33:06;;;;;;;1.52;0.50;;;20.60;73.10;;;;;;6305829;22;45104;-60
2023/10/15 00:35:34;;;;;;;2.40;0.70;;;20.60;73.00;;;;;;6306759;22;45032;-60
2023/10/15 00:38:07;;;;;;;1.08;0.60;;;20.60;73.60;;;;;;6306620;22;47219;-60
2023/10/15 00:40:38;;;;;;;1.17;0.50;;;20.60;73.00;;;;;;6275489;22;44675;-60
2023/10/15 00:43:05;;;;;;;0.88;0.52;;;20.60;72.60;;;;;;6275439;22;45081;-60
2023/10/15 00:45:36;;;;;;;1.67;0.70;;;20.60;73.10;;;;;;6275339;22;45130;-60
2023/10/15 00:48:11;;;;;;;2.38;1.20;;;20.60;73.30;;;;;;6275002;22;45228;-60
2023/10/15 00:50:41;;;;;;;1.38;0.82;;;20.70;72.60;;;;;;6275144;22;45103;-60
2023/10/15 00:53:22;;;;;;;2.63;0.82;;;20.60;73.40;;;;;;6275657;22;45122;-60
2023/10/15 00:55:51;;;;;;;2.25;0.80;;;20.60;72.20;;;;;;6274898;22;45007;-60
2023/10/15 00:58:31;;;;;;;2.05;0.93;;;20.60;71.90;;;;;;6274430;22;45395;-60
2023/10/15 01:01:00;;;;;;;3.53;1.02;;;20.60;71.90;;;;;;6275277;22;45555;-60
2023/10/15 01:03:30;;;;;;;2.90;0.85;;;20.70;72.30;;;;;;6275624;22;45248;-60
2023/10/15 01:06:05;;;;;;;2.17;0.80;;;20.60;72.10;;;;;;6275005;22;44672;-60
2023/10/15 01:08:37;;;;;;;1.88;0.65;;;20.70;72.10;;;;;;6275131;22;47186;-60
2023/10/15 01:11:11;;;;;;;2.72;0.70;;;20.60;71.70;;;;;;6274736;22;45050;-60
2023/10/15 01:13:39;;;;;;;4.68;0.90;;;20.70;71.80;;;;;;6275331;22;45094;-60
2023/10/15 01:16:08;;;;;;;3.97;0.80;;;20.70;71.70;;;;;;6275009;22;44701;-60
2023/10/15 01:18:36;;;;;;;2.38;0.80;;;20.60;71.40;;;;;;6274758;22;47255;-60
2023/10/15 01:21:04;;;;;;;3.13;0.77;;;20.70;72.00;;;;;;6275147;22;45254;-60
2023/10/15 01:23:52;;;;;;;1.42;0.80;;;20.60;71.50;;;;;;6276629;22;45128;-60
2023/10/15 01:26:23;;;;;;;1.67;0.70;;;20.70;71.90;;;;;;6276338;22;45376;-60
2023/10/15 01:28:51;;;;;;;2.38;0.82;;;20.70;71.60;;;;;;6276609;22;45374;-60
2023/10/15 01:31:18;;;;;;;1.92;1.10;;;20.70;71.40;;;;;;6277024;22;45048;-60
2023/10/15 01:33:49;;;;;;;2.50;0.85;;;20.70;71.40;;;;;;6276377;22;45075;-60
2023/10/15 01:36:18;;;;;;;1.65;0.77;;;20.70;71.40;;;;;;6276875;22;45236;-60
2023/10/15 01:38:45;;;;;;;2.38;0.95;;;20.60;71.40;;;;;;6276019;22;47063;-60
2023/10/15 01:41:13;;;;;;;1.92;0.93;;;20.60;71.40;;;;;;6276089;22;44632;-60
2023/10/15 01:43:46;;;;;;;1.95;0.70;;;20.60;71.40;;;;;;6276462;22;45077;-60
2023/10/15 01:46:23;;;;;;;3.17;0.95;;;20.70;71.40;;;;;;6276490;22;45407;-60
2023/10/15 01:48:50;;;;;;;1.60;0.70;;;20.60;71.40;;;;;;6276602;22;45366;-60
2023/10/15 01:51:17;;;;;;;1.77;0.80;;;20.70;71.30;;;;;;6276783;22;45007;-60
2023/10/15 01:53:45;;;;;;;1.70;0.70;;;20.60;71.20;;;;;;6276560;22;45135;-60
2023/10/15 01:56:17;;;;;;;2.00;0.82;;;20.60;71.40;;;;;;6276201;22;45351;-60
2023/10/15 01:58:45;;;;;;;1.85;0.75;;;20.60;71.40;;;;;;6276016;22;47331;-60
2023/10/15 02:01:31;;;;;;;2.55;1.02;;;20.60;71.00;;;;;;6276454;22;45058;-60
2023/10/15 02:03:58;;;;;;;1.83;0.60;;;20.60;71.10;;;;;;6276626;22;44661;-60
2023/10/15 02:06:26;;;;;;;2.40;0.82;;;20.60;71.00;;;;;;6275912;22;45361;-60
2023/10/15 02:08:54;;;;;;;2.33;1.00;;;20.60;70.80;;;;;;6276121;22;47044;-60
2023/10/15 02:11:22;;;;;;;3.40;0.88;;;20.60;71.00;;;;;;6275903;22;45158;-60
2023/10/15 02:13:51;;;;;;;2.63;0.80;;;20.60;71.10;;;;;;6276442;22;45167;-60
2023/10/15 02:16:25;;;;;;;1.50;0.73;;;20.60;71.30;;;;;;6276379;22;44995;-60
2023/10/15 02:18:52;;;;;;;2.15;0.73;;;20.60;71.50;;;;;;6276171;22;45263;-60
2023/10/15 02:21:19;;;;;;;3.10;0.88;;;20.60;71.90;;;;;;6275685;22;45076;-60
2023/10/15 02:23:50;;;;;;;3.13;0.82;;;20.60;72.00;;;;;;6276801;22;45059;-60
2023/10/15 02:26:19;;;;;;;2.58;0.82;;;20.60;72.10;;;;;;6276038;22;45007;-60
2023/10/15 02:28:53;;;;;;;2.88;0.90;;;20.60;72.10;;;;;;6275736;22;47608;-60
2023/10/15 02:31:22;;;;;;;1.92;0.90;;;20.60;72.10;;;;;;6275928;22;45067;-60
2023/10/15 02:33:50;;;;;;;3.40;0.90;;;20.60;71.90;;;;;;6275424;22;45051;-60
2023/10/15 02:36:18;;;;;;;1.15;0.52;;;20.60;72.10;;;;;;6275956;22;45344;-60
2023/10/15 02:38:56;;;;;;;1.58;0.70;;;20.60;71.90;;;;;;6276037;22;45387;-60
2023/10/15 02:41:25;;;;;;;2.42;0.80;;;20.60;72.20;;;;;;6276002;22;45134;-60
2023/10/15 02:43:55;;;;;;;2.03;0.80;;;20.60;72.20;;;;;;6276232;22;45019;-60
2023/10/15 02:46:25;;;;;;;3.30;0.85;;;20.60;72.30;;;;;;6275404;22;45130;-60
2023/10/15 02:48:53;;;;;;;2.42;0.57;;;20.60;72.00;;;;;;6275915;22;46477;-60
2023/10/15 02:51:24;;;;;;;2.03;0.68;;;20.50;72.10;;;;;;6276054;22;45022;-60
2023/10/15 02:53:52;;;;;;;2.65;0.60;;;20.60;72.50;;;;;;6276721;22;44701;-60
2023/10/15 02:56:20;;;;;;;3.58;0.90;;;20.60;72.10;;;;;;6275877;22;45032;-60
2023/10/15 02:58:47;;;;;;;2.10;0.60;;;20.50;72.40;;;;;;6275192;22;46304;-60
2023/10/15 03:01:17;;;;;;;1.15;0.60;;;20.50;72.20;;;;;;6276292;22;45042;-60
2023/10/15 03:03:49;;;;;;;2.10;0.85;;;20.50;72.70;;;;;;6276570;22;45105;-60
2023/10/15 03:06:18;;;;;;;4.05;1.00;;;20.50;72.60;;;;;;6275557;22;45011;-60
2023/10/15 03:08:47;;;;;;;1.55;0.60;;;20.50;72.80;;;;;;6275772;22;47309;-60
2023/10/15 03:11:14;;;;;;;3.38;0.65;;;20.50;73.00;;;;;;6275946;22;45045;-60
2023/10/15 03:13:52;;;;;;;2.00;0.80;;;20.50;73.60;;;;;;6276817;22;45100;-60
2023/10/15 03:16:19;;;;;;;3.17;1.10;;;20.50;73.80;;;;;;6275507;22;45117;-60
2023/10/15 03:18:49;;;;;;;3.75;0.90;;;20.50;74.00;;;;;;6275322;22;46352;-60
2023/10/15 03:21:25;;;;;;;1.33;0.70;;;20.50;73.80;;;;;;6276110;22;45022;-60
2023/10/15 03:23:55;;;;;;;1.15;0.60;;;20.50;74.00;;;;;;6276368;22;44600;-60
2023/10/15 03:26:22;;;;;;;4.60;1.00;;;20.60;74.00;;;;;;6275742;22;45082;-60
2023/10/15 03:28:51;;;;;;;1.63;0.65;;;20.60;73.90;;;;;;6276331;22;47189;-59
2023/10/15 03:31:23;;;;;;;1.60;0.80;;;20.60;73.80;;;;;;6275753;22;45085;-60
2023/10/15 03:34:16;;;;;;;1.48;0.70;;;20.60;73.70;;;;;;6276019;22;45075;-60
2023/10/15 03:36:50;;;;;;;1.83;0.70;;;20.60;73.60;;;;;;6275413;22;45259;-60
2023/10/15 03:39:24;;;;;;;4.10;0.90;;;20.60;73.60;;;;;;6275552;22;45264;-60
2023/10/15 03:41:52;;;;;;;1.35;0.85;;;20.60;73.60;;;;;;6275627;22;45083;-60
2023/10/15 03:44:27;;;;;;;5.88;1.00;;;20.60;73.70;;;;;;6276067;22;45247;-60
2023/10/15 03:46:57;;;;;;;2.63;1.02;;;20.60;73.70;;;;;;6275305;22;45145;-60
2023/10/15 03:49:27;;;;;;;3.60;0.80;;;20.50;73.40;;;;;;6275846;22;45209;-60
2023/10/15 03:51:54;;;;;;;2.55;0.80;;;20.60;73.10;;;;;;6275900;22;45150;-60
2023/10/15 03:54:23;;;;;;;0.88;0.52;;;20.50;73.10;;;;;;6276008;22;45092;-60
2023/10/15 03:56:51;;;;;;;1.38;0.65;;;20.50;73.20;;;;;;6275407;22;45157;-60
2023/10/15 03:59:18;;;;;;;1.60;0.73;;;20.50;73.50;;;;;;6276059;22;48023;-60
2023/10/15 04:01:48;;;;;;;2.47;0.70;;;20.50;73.50;;;;;;6276068;22;45111;-60
2023/10/15 04:04:17;;;;;;;1.88;0.60;;;20.50;73.40;;;;;;6277466;22;44594;-60
2023/10/15 04:06:52;;;;;;;1.08;0.50;;;20.50;73.30;;;;;;6277482;22;45099;-60
2023/10/15 04:09:23;;;;;;;1.35;0.57;;;20.50;73.50;;;;;;6277689;22;45110;-60
2023/10/15 04:11:50;;;;;;;2.47;0.80;;;20.50;73.70;;;;;;6275778;22;45186;-60
2023/10/15 04:14:26;;;;;;;3.45;0.90;;;20.50;73.40;;;;;;6276103;22;45316;-60
2023/10/15 04:16:53;;;;;;;2.35;0.70;;;20.50;73.50;;;;;;6275982;22;45215;-60
2023/10/15 04:19:20;;;;;;;4.07;1.10;;;20.50;73.40;;;;;;6276311;22;45107;-60
2023/10/15 04:21:52;;;;;;;2.10;0.80;;;20.50;73.50;;;;;;6274854;22;45094;-60
2023/10/15 04:24:27;;;;;;;2.22;0.80;;;20.50;73.50;;;;;;6276243;22;45070;-60
2023/10/15 04:26:54;;;;;;;2.17;0.70;;;20.50;73.40;;;;;;6274785;22;45031;-60
2023/10/15 04:29:21;;;;;;;1.40;0.68;;;20.50;73.20;;;;;;6275835;22;46422;-60
2023/10/15 04:32:00;;;;;;;1.50;0.70;;;20.50;73.10;;;;;;6275093;22;45075;-60
2023/10/15 04:34:28;;;;;;;2.03;0.70;;;20.50;73.10;;;;;;6274573;22;45042;-60
2023/10/15 04:36:57;;;;;;;1.77;0.80;;;20.50;73.10;;;;;;6275073;22;45109;-60
2023/10/15 04:39:24;;;;;;;1.13;0.70;;;20.50;73.00;;;;;;6275640;22;46519;-60
2023/10/15 04:41:51;;;;;;;2.85;0.65;;;20.50;73.10;;;;;;6274940;22;45067;-60
2023/10/15 04:44:24;;;;;;;2.53;0.73;;;20.60;72.80;;;;;;6275004;22;45218;-60
2023/10/15 04:46:53;;;;;;;2.85;0.60;;;20.60;73.00;;;;;;6274399;22;45051;-60
2023/10/15 04:49:20;;;;;;;2.08;0.80;;;20.50;72.30;;;;;;6275341;22;46679;-60
2023/10/15 04:51:47;;;;;;;1.17;0.60;;;20.50;72.20;;;;;;6275263;22;45089;-60
2023/10/15 04:54:17;;;;;;;1.95;0.60;;;20.60;72.00;;;;;;6275284;22;44602;-60
2023/10/15 04:56:44;;;;;;;2.30;0.70;;;20.50;71.90;;;;;;6274324;22;44735;-60
2023/10/15 04:59:11;;;;;;;1.67;0.55;;;20.50;71.70;;;;;;6276034;22;45141;-60
2023/10/15 05:01:38;;;;;;;2.15;0.70;;;20.60;71.50;;;;;;6276522;22;45296;-60
2023/10/15 05:04:06;;;;;;;0.52;0.40;;;20.50;71.80;;;;;;6276651;22;45128;-60
2023/10/15 05:06:33;;;;;;;3.72;0.88;;;20.50;71.70;;;;;;6275868;22;45122;-60
2023/10/15 05:09:00;;;;;;;1.50;0.73;;;20.50;71.70;;;;;;6276476;22;47014;-60
2023/10/15 05:11:28;;;;;;;2.47;1.08;;;20.50;71.80;;;;;;6276052;22;45178;-60
2023/10/15 05:13:55;;;;;;;1.20;0.50;;;20.50;71.50;;;;;;6275993;22;45241;-60
2023/10/15 05:16:22;;;;;;;0.75;0.30;;;20.50;71.70;;;;;;6275946;22;45209;-60
2023/10/15 05:18:48;;;;;;;1.05;0.50;;;20.50;71.80;;;;;;6276276;22;46369;-60
2023/10/15 05:21:15;;;;;;;3.97;0.80;;;20.50;71.70;;;;;;6276278;22;45048;-60
2023/10/15 05:23:42;;;;;;;1.42;0.60;;;20.50;71.70;;;;;;6276686;22;45095;-60
2023/10/15 05:26:09;;;;;;;1.38;0.70;;;20.50;71.60;;;;;;6275838;22;45406;-60
2023/10/15 05:28:37;;;;;;;3.80;0.70;;;20.50;71.60;;;;;;6276131;22;45132;-60
2023/10/15 05:31:04;;;;;;;0.68;0.40;;;20.50;71.70;;;;;;6276526;22;45053;-60
2023/10/15 05:33:31;;;;;;;1.92;0.70;;;20.50;72.00;;;;;;6276033;22;45076;-60
2023/10/15 05:35:58;;;;;;;2.72;0.82;;;20.50;72.40;;;;;;6276477;22;45121;-60
2023/10/15 05:38:26;;;;;;;1.98;0.70;;;20.50;72.60;;;;;;6276248;22;46066;-60
2023/10/15 05:40:58;;;;;;;2.13;0.57;;;20.50;73.00;;;;;;6276822;22;45440;-60
2023/10/15 05:43:25;;;;;;;1.42;0.60;;;20.50;72.80;;;;;;6276990;22;45196;-60
2023/10/15 05:45:53;;;;;;;1.17;0.50;;;20.50;72.90;;;;;;6275545;22;45119;-60
2023/10/15 05:48:20;;;;;;;1.40;0.77;;;20.50;72.90;;;;;;6275916;22;46237;-60
2023/10/15 05:50:48;;;;;;;1.92;0.63;;;20.50;73.00;;;;;;6276544;22;45081;-60
2023/10/15 05:53:16;;;;;;;1.10;0.60;;;20.50;73.20;;;;;;6276855;22;44814;-60
2023/10/15 05:55:42;;;;;;;1.27;0.60;;;20.50;73.30;;;;;;6276008;22;45252;-60
2023/10/15 05:58:09;;;;;;;2.45;0.80;;;20.50;73.50;;;;;;6275541;22;45174;-60
2023/10/15 06:00:39;;;;;;;2.50;0.93;;;20.50;73.70;;;;;;6276605;22;45057;-60
2023/10/15 06:03:08;;;;;;;1.75;0.63;;;20.50;73.60;;;;;;6274966;22;45159;-60
2023/10/15 06:05:35;;;;;;;2.78;0.75;;;20.50;74.00;;;;;;6271794;22;45099;-61
2023/10/15 06:08:04;;;;;;;1.35;0.60;;;20.50;74.20;;;;;;6271557;22;48011;-60
2023/10/15 06:10:32;;;;;;;1.35;0.65;;;20.50;74.20;;;;;;6275411;22;45240;-60
2023/10/15 06:13:01;;;;;;;2.65;0.60;;;20.50;74.20;;;;;;6275758;22;45119;-60
2023/10/15 06:15:28;;;;;;;1.80;0.68;;;20.50;74.50;;;;;;6276013;22;45352;-60
2023/10/15 06:17:55;;;;;;;1.75;0.60;;;20.50;74.70;;;;;;6275427;22;48114;-60
2023/10/15 06:20:24;;;;;;;2.03;0.80;;;20.50;74.90;;;;;;6274981;22;45067;-60
2023/10/15 06:22:55;;;;;;;4.13;0.70;;;20.50;75.00;;;;;;6271263;22;45130;-59
2023/10/15 06:25:23;;;;;;;1.70;0.47;;;20.60;77.30;;;;;;6272561;22;45237;-59
2023/10/15 06:27:50;;;;;;;1.13;0.32;;;20.50;76.40;;;;;;6274556;22;47305;-59
2023/10/15 06:30:17;;;;;;;2.35;0.52;;;20.50;76.20;;;;;;6274133;22;45640;-59
2023/10/15 06:32:44;;;;;;;0.65;0.50;;;20.50;76.10;;;;;;6274292;22;45201;-59
2023/10/15 06:35:16;;;;;;;0.90;0.50;;;20.50;75.70;;;;;;6275127;22;45322;-59
2023/10/15 06:37:44;;;;;;;1.58;0.47;;;20.50;75.90;;;;;;6275484;22;45003;-59
2023/10/15 06:40:11;;;;;;;0.57;0.30;;;20.50;75.90;;;;;;6276405;22;45027;-58
2023/10/15 06:42:38;;;;;;;0.88;0.38;;;20.40;75.80;;;;;;6275031;22;45157;-59
2023/10/15 06:45:07;;;;;;;0.50;0.38;;;20.40;75.80;;;;;;6276350;22;45088;-59
2023/10/15 06:47:34;;;;;;;0.98;0.40;;;20.40;76.00;;;;;;6274923;22;47521;-60
2023/10/15 06:50:05;;;;;;;0.77;0.30;;;20.40;76.20;;;;;;6274632;22;44635;-59
2023/10/15 06:52:33;;;;;;;1.13;0.40;;;20.40;76.40;;;;;;6276305;22;45073;-59
2023/10/15 06:55:01;;;;;;;1.02;0.35;;;20.40;76.80;;;;;;6276432;22;45050;-60
2023/10/15 06:57:27;;;;;;;1.10;0.30;;;20.40;77.80;;;;;;6275093;22;45158;-59
2023/10/15 06:59:54;;;;;;;0.65;0.30;;;20.50;77.80;;;;;;6276221;22;45036;-59
2023/10/15 07:02:21;;;;;;;1.30;0.40;;;20.50;77.70;;;;;;6276021;22;45053;-59
2023/10/15 07:04:48;;;;;;;1.05;0.45;;;20.50;77.70;;;;;;6277270;22;44644;-59
2023/10/15 07:07:15;;;;;;;1.70;0.52;;;20.50;77.90;;;;;;6277053;22;47848;-59
2023/10/15 07:09:42;;;;;;;1.15;0.35;;;20.50;77.80;;;;;;6277548;22;44614;-59
2023/10/15 07:12:11;;;;;;;0.50;0.28;;;20.50;77.90;;;;;;6275902;22;45137;-59
2023/10/15 07:14:39;;;;;;;0.98;0.40;;;20.40;77.60;;;;;;6276157;22;45071;-59
2023/10/15 07:17:06;;;;;;;1.30;0.30;;;20.50;78.00;;;;;;6274630;22;47709;-59
2023/10/15 07:19:33;;;;;;;0.65;0.35;;;20.50;78.00;;;;;;6275597;22;45087;-59
2023/10/15 07:22:00;;;;;;;0.40;0.22;;;20.50;78.10;;;;;;6275495;22;45074;-58
2023/10/15 07:24:27;;;;;;;1.05;0.50;;;20.40;78.00;;;;;;6276352;22;44997;-58
2023/10/15 07:26:54;;;;;;;0.50;0.30;;;20.40;78.20;;;;;;6274599;22;47151;-60
2023/10/15 07:29:23;;;;;;;0.43;0.35;;;20.50;77.70;;;;;;6276038;22;44535;-60
2023/10/15 07:31:50;;;;;;;1.85;0.35;;;20.40;77.80;;;;;;6275478;22;45055;-60
2023/10/15 07:34:17;;;;;;;0.40;0.20;;;20.50;77.50;;;;;;6275916;22;44638;-59
2023/10/15 07:36:45;;;;;;;1.63;0.35;;;20.40;77.80;;;;;;6275093;22;45386;-59
2023/10/15 07:39:12;;;;;;;0.80;0.40;;;20.40;77.30;;;;;;6275004;22;45040;-59
2023/10/15 07:41:38;;;;;;;1.08;0.52;;;20.40;77.60;;;;;;6275766;22;45138;-59
2023/10/15 07:44:07;;;;;;;0.30;0.30;;;20.40;77.60;;;;;;6276233;22;44597;-59
2023/10/15 07:46:35;;;;;;;0.60;0.30;;;20.40;77.50;;;;;;6274632;22;45093;-59
2023/10/15 07:49:03;;;;;;;2.45;0.40;;;20.40;77.50;;;;;;6275105;22;44623;-59
2023/10/15 07:51:29;;;;;;;1.05;0.28;;;20.40;77.60;;;;;;6275644;22;45225;-59
2023/10/15 07:53:56;;;;;;;0.80;0.40;;;20.40;77.90;;;;;;6276455;22;45142;-59
2023/10/15 07:56:23;;;;;;;2.72;0.70;;;20.40;78.00;;;;;;6274699;22;46357;-60
2023/10/15 07:58:50;;;;;;;1.15;0.40;;;20.40;78.20;;;;;;6276068;22;44992;-60
2023/10/15 08:01:17;;;;;;;0.40;0.40;;;20.40;78.10;;;;;;6274348;22;44995;-59
2023/10/15 08:03:45;;;;;;;2.42;0.50;;;20.40;78.60;;;;;;6276310;22;45106;-59
2023/10/15 08:06:12;;;;;;;0.80;0.38;;;20.40;78.60;;;;;;6275692;22;45145;-59
2023/10/15 08:08:38;;;;;;;2.05;0.25;;;20.40;77.70;;;;;;6274958;22;45064;-59
2023/10/15 08:11:05;;;;;;;1.30;0.30;;;20.40;77.80;;;;;;6275545;22;44633;-60
2023/10/15 08:13:32;;;;;;;0.90;0.40;;;20.40;78.60;;;;;;6275743;22;45188;-60
2023/10/15 08:15:59;;;;;;;1.13;0.40;;;20.40;78.60;;;;;;6274995;22;46184;-60
2023/10/15 08:18:26;;;;;;;0.80;0.30;;;20.40;78.60;;;;;;6275629;22;45064;-59
2023/10/15 08:20:54;;;;;;;0.73;0.45;;;20.40;78.60;;;;;;6274756;22;45074;-59
2023/10/15 08:23:21;;;;;;;1.77;0.40;;;20.50;78.70;;;;;;6275983;22;45082;-59
2023/10/15 08:25:48;;;;;;;1.33;0.70;;;20.40;78.60;;;;;;6275373;22;45173;-58
2023/10/15 08:28:15;;;;;;;0.95;0.50;;;20.50;78.70;;;;;;6274441;22;45000;-59
2023/10/15 08:30:42;;;;;;;1.75;0.52;;;20.40;78.70;;;;;;6274724;22;45086;-59
2023/10/15 08:33:12;;;;;;;4.15;0.70;;;20.50;79.10;;;;;;6274682;22;45216;-60
2023/10/15 08:35:40;;;;;;;0.95;0.40;;;20.50;79.80;;;;;;6275059;22;48151;-60
2023/10/15 08:38:08;;;;;;;2.30;0.60;;;20.40;79.40;;;;;;6275007;22;45104;-60
2023/10/15 08:40:40;;;;;;;2.50;0.60;;;20.50;79.90;;;;;;6272609;22;45213;-60
2023/10/15 08:43:13;;;;;;;0.93;0.47;;;20.50;79.90;;;;;;6275046;22;45123;-59
2023/10/15 08:45:42;;;;;;;1.60;0.47;;;20.40;79.70;;;;;;6275200;22;45275;-59
2023/10/15 08:48:12;;;;;;;0.70;0.40;;;20.40;79.40;;;;;;6274861;22;45224;-59
2023/10/15 08:50:39;;;;;;;1.80;0.47;;;20.40;79.70;;;;;;6275809;22;45209;-59
2023/10/15 08:53:08;;;;;;;1.10;0.60;;;20.50;79.80;;;;;;6276092;22;45047;-59
2023/10/15 08:55:36;;;;;;;1.13;0.40;;;20.50;79.80;;;;;;6275184;22;45096;-59
2023/10/15 08:58:06;;;;;;;2.13;0.80;;;20.40;80.10;;;;;;6275198;22;45094;-59
2023/10/15 09:00:36;;;;;;;1.05;0.40;;;20.40;79.80;;;;;;6275842;22;44604;-59
2023/10/15 09:03:04;;;;;;;1.40;0.57;;;20.40;79.90;;;;;;6274323;22;45145;-59
2023/10/15 09:05:33;;;;;;;1.75;0.40;;;20.40;80.00;;;;;;6275115;22;45318;-59
2023/10/15 09:08:07;;;;;;;1.95;0.63;;;20.40;80.00;;;;;;6275354;22;45134;-59
2023/10/15 09:10:40;;;;;;;1.75;0.60;;;20.40;79.90;;;;;;6275689;22;45022;-59
2023/10/15 09:13:14;;;;;;;1.95;0.70;;;20.40;80.20;;;;;;6275976;22;45090;-59
2023/10/15 09:15:43;;;;;;;3.53;0.63;;;20.40;80.20;;;;;;6275210;22;47358;-59
2023/10/15 09:18:11;;;;;;;2.10;0.57;;;20.40;80.70;;;;;;6274432;22;45189;-58
2023/10/15 09:20:42;;;;;;;0.82;0.50;;;20.40;80.70;;;;;;6275064;22;45202;-59
2023/10/15 09:23:09;;;;;;;2.25;0.45;;;20.40;80.70;;;;;;6275345;22;45012;-58
2023/10/15 09:25:38;;;;;;;0.65;0.43;;;20.40;80.80;;;;;;6274915;22;45084;-58
2023/10/15 09:28:05;;;;;;;1.48;0.38;;;20.40;80.80;;;;;;6274591;22;45044;-58
2023/10/15 09:30:32;;;;;;;0.95;0.30;;;20.40;80.90;;;;;;6272960;22;45074;-58
2023/10/15 09:32:59;;;;;;;3.05;0.70;;;20.50;80.90;;;;;;6272172;22;45220;-60
2023/10/15 09:35:27;;;;;;;2.15;0.70;;;20.40;81.00;;;;;;6269778;22;46156;-60
2023/10/15 09:37:57;;;;;;;1.80;0.50;;;20.40;81.10;;;;;;6271686;22;45051;-61
2023/10/15 09:40:24;;;;;;;3.67;0.50;;;20.40;81.10;;;;;;6273334;22;45058;-60
2023/10/15 09:42:53;;;;;;;1.05;0.45;;;20.40;81.10;;;;;;6274922;22;45079;-61
2023/10/15 09:45:23;;;;;;;2.33;0.80;;;20.40;81.00;;;;;;6274970;22;46150;-60
2023/10/15 09:47:55;;;;;;;1.20;0.50;;;20.40;80.90;;;;;;6274895;22;45064;-60
2023/10/15 09:50:25;;;;;;;1.10;0.50;;;20.40;81.00;;;;;;6275498;22;44621;-60
2023/10/15 09:52:56;;;;;;;1.63;0.60;;;20.40;80.80;;;;;;6276483;22;45040;-60
2023/10/15 09:55:24;;;;;;;0.85;0.55;;;20.40;80.10;;;;;;6275318;22;47230;-59
2023/10/15 09:57:55;;;;;;;1.75;0.50;;;20.30;78.50;;;;;;6275909;22;45016;-60
2023/10/15 10:00:32;;;;;;;0.82;0.57;;;20.30;74.10;;;;;;6275567;22;45136;-60
2023/10/15 10:03:14;;;;;;;2.97;0.52;;;20.30;72.10;;;;;;6277204;22;44991;-60
2023/10/15 10:05:56;;;;;;;0.80;0.30;;;20.30;70.30;;;;;;6275907;22;45099;-60
2023/10/15 10:08:32;;;;;;;1.85;0.50;;;20.30;70.50;;;;;;6275705;22;45062;-60
2023/10/15 10:11:10;;;;;;;1.25;0.60;;;20.20;69.20;;;;;;6276458;22;45179;-59
2023/10/15 10:13:51;;;;;;;1.40;0.52;;;20.20;68.50;;;;;;6276763;22;45073;-59
2023/10/15 10:16:24;;;;;;;1.15;0.47;;;20.20;68.50;;;;;;6275781;22;45347;-59
2023/10/15 10:18:51;;;;;;;0.68;0.40;;;20.30;68.90;;;;;;6275289;22;44553;-59
2023/10/15 10:21:17;;;;;;;0.95;0.50;;;20.30;70.30;;;;;;6275564;22;45061;-60
2023/10/15 10:23:45;;;;;;;0.82;0.40;;;20.30;70.50;;;;;;6275763;22;44680;-60
2023/10/15 10:26:12;;;;;;;1.25;0.52;;;20.40;71.30;;;;;;6272084;22;45220;-61
2023/10/15 10:28:40;;;;;;;0.93;0.40;;;20.40;71.90;;;;;;6273314;22;45091;-61
2023/10/15 10:31:09;;;;;;;1.92;0.70;;;20.40;71.80;;;;;;6273973;22;45105;-60
2023/10/15 10:33:40;;;;;;;1.33;0.47;;;20.40;71.80;;;;;;6275913;22;45281;-60
2023/10/15 10:36:12;;;;;;;0.40;0.30;;;20.40;72.00;;;;;;6275921;22;46187;-59
2023/10/15 10:38:39;;;;;;;1.17;0.50;;;20.40;72.20;;;;;;6276124;22;44551;-59
2023/10/15 10:41:13;;;;;;;1.15;0.43;;;20.40;72.40;;;;;;6276166;22;45160;-59
2023/10/15 10:43:41;;;;;;;1.65;0.60;;;20.40;72.40;;;;;;6276741;22;45053;-59
2023/10/15 10:46:20;;;;;;;1.30;0.15;;;20.40;72.70;;;;;;6276147;22;45389;-59
2023/10/15 10:49:03;;;;;;;2.00;0.55;;;20.50;73.00;;;;;;6277866;22;45263;-59
2023/10/15 10:51:32;;;;;;;1.30;0.68;;;20.40;73.10;;;;;;6278236;22;44601;-59
2023/10/15 10:54:27;;;;;;;0.85;0.47;;;20.40;73.50;;;;;;6276741;22;45069;-59
2023/10/15 10:57:00;;;;;;;1.08;0.45;;;20.50;73.50;;;;;;6275318;22;45151;-59
2023/10/15 10:59:28;;;;;;;1.02;0.60;;;20.40;73.40;;;;;;6276973;22;45133;-59
2023/10/15 11:01:57;;;;;;;2.40;0.50;;;20.40;73.70;;;;;;6276187;22;45135;-59
2023/10/15 11:04:25;;;;;;;0.68;0.50;;;20.40;73.70;;;;;;6276684;22;45106;-59
2023/10/15 11:06:51;;;;;;;2.22;0.70;;;20.40;73.50;;;;;;6275674;22;46288;-59
2023/10/15 11:09:20;;;;;;;1.13;0.50;;;20.40;73.60;;;;;;6276646;22;45041;-59
2023/10/15 11:11:47;;;;;;;1.42;0.50;;;20.40;73.60;;;;;;6276149;22;45077;-59
2023/10/15 11:14:14;;;;;;;0.52;0.30;;;20.40;73.90;;;;;;6276597;22;45065;-59
2023/10/15 11:16:42;;;;;;;0.80;0.38;;;20.40;74.00;;;;;;6275456;22;46392;-59
2023/10/15 11:19:18;;;;;;;1.05;0.50;;;20.40;74.00;;;;;;6276630;22;45057;-59
2023/10/15 11:21:45;;;;;;;1.42;0.50;;;20.40;74.00;;;;;;6276630;22;44579;-59
2023/10/15 11:24:13;;;;;;;0.55;0.30;;;20.40;74.00;;;;;;6276551;22;44745;-60
2023/10/15 11:26:42;;;;;;;1.05;0.38;;;20.40;74.10;;;;;;6275039;22;46879;-60
2023/10/15 11:29:10;;;;;;;2.22;0.57;;;20.40;73.80;;;;;;6275786;22;45051;-60
2023/10/15 11:31:38;;;;;;;0.80;0.40;;;20.40;74.00;;;;;;6276247;22;44661;-60
2023/10/15 11:34:06;;;;;;;0.68;0.50;;;20.40;74.50;;;;;;6276527;22;45256;-60
2023/10/15 11:36:38;;;;;;;0.80;0.50;;;20.40;74.70;;;;;;6275159;22;45215;-60
2023/10/15 11:39:09;;;;;;;1.05;0.50;;;20.40;75.10;;;;;;6276373;22;45152;-60
2023/10/15 11:41:38;;;;;;;0.70;0.38;;;20.40;75.50;;;;;;6275978;22;45149;-60
2023/10/15 11:44:06;;;;;;;0.43;0.30;;;20.40;75.60;;;;;;6276277;22;45276;-60
2023/10/15 11:46:33;;;;;;;0.30;0.20;;;20.40;75.20;;;;;;6275052;22;46358;-60
2023/10/15 11:49:01;;;;;;;2.65;0.40;;;20.40;75.60;;;;;;6276224;22;45051;-60
2023/10/15 11:51:30;;;;;;;0.73;0.30;;;20.40;75.60;;;;;;6276722;22;45038;-60
2023/10/15 11:54:01;;;;;;;0.82;0.35;;;20.40;75.40;;;;;;6276722;22;45083;-60
2023/10/15 11:56:29;;;;;;;0.98;0.30;;;20.40;75.40;;;;;;6275323;22;45386;-60
2023/10/15 11:58:57;;;;;;;0.85;0.35;;;20.40;75.20;;;;;;6276424;22;45171;-60
2023/10/15 12:01:26;;;;;;;1.35;0.40;;;20.40;74.90;;;;;;6276309;22;45258;-60
2023/10/15 12:03:56;;;;;;;1.20;0.40;;;20.40;75.00;;;;;;6276884;22;44985;-60
2023/10/15 12:06:23;;;;;;;2.65;0.60;;;20.40;75.00;;;;;;6274841;22;45173;-59
2023/10/15 12:08:52;;;;;;;1.15;0.50;;;20.40;75.10;;;;;;6276421;22;45094;-60
2023/10/15 12:11:20;;;;;;;1.23;0.50;;;20.40;74.80;;;;;;6275861;22;45031;-60
2023/10/15 12:13:47;;;;;;;1.58;0.57;;;20.40;75.60;;;;;;6276335;22;45225;-59
2023/10/15 12:16:14;;;;;;;1.30;0.40;;;20.40;74.30;;;;;;6275355;22;45347;-59
2023/10/15 12:18:41;;;;;;;0.68;0.40;;;20.40;74.10;;;;;;6275490;22;45071;-60
2023/10/15 12:21:08;;;;;;;0.20;0.20;;;20.40;74.00;;;;;;6276214;22;45062;-60
2023/10/15 12:23:34;;;;;;;2.88;0.45;;;20.40;74.00;;;;;;6276335;22;45222;-60
2023/10/15 12:26:05;;;;;;;0.73;0.30;;;20.40;74.10;;;;;;6275267;22;46230;-60
2023/10/15 12:28:43;;;;;;;1.05;0.30;;;20.40;73.60;;;;;;6274982;22;45223;-60
2023/10/15 12:31:10;;;;;;;0.40;0.30;;;20.40;74.10;;;;;;6276119;22;45123;-60
2023/10/15 12:33:38;;;;;;;1.75;0.20;;;20.40;73.70;;;;;;6275803;22;45099;-60
2023/10/15 12:36:07;;;;;;;2.20;0.35;;;20.40;74.00;;;;;;6275249;22;46629;-60
2023/10/15 12:38:34;;;;;;;1.80;0.20;;;20.40;73.50;;;;;;6275297;22;45696;-60
2023/10/15 12:41:01;;;;;;;1.10;0.30;;;20.40;73.80;;;;;;6275998;22;45049;-60
2023/10/15 12:43:28;;;;;;;0.75;0.40;;;20.40;74.30;;;;;;6276280;22;44803;-60
2023/10/15 12:45:56;;;;;;;1.15;0.35;;;20.40;74.30;;;;;;6275090;22;45106;-60
2023/10/15 12:48:22;;;;;;;0.88;0.50;;;20.40;74.50;;;;;;6275529;22;45031;-60
2023/10/15 12:50:50;;;;;;;1.02;0.40;;;20.40;74.50;;;;;;6276048;22;45060;-60
2023/10/15 12:53:17;;;;;;;1.55;0.30;;;20.40;74.70;;;;;;6276299;22;45119;-60
2023/10/15 12:55:44;;;;;;;0.82;0.40;;;20.40;74.70;;;;;;6275262;22;45150;-60
2023/10/15 12:58:10;;;;;;;0.77;0.30;;;20.40;74.80;;;;;;6275281;22;45041;-60